KZR721 VIDP-UAAA
Flight info
| Callsign | KZR721 |
|---|---|
| Flight time | N/A |
| Altitude | 34000 |
| Route | OROTI6F OROTI A589 ASARI L509 SULOM DCT LA Z305 PS DCT FIRUZ/K0835F340 DCT POMIR L139 INKAR DCT IRGUL B351 RUDEK L143 MNS DCT EKLAT |
| Aircraft | A21N/M-L/S |
Departure
| Time | 2026-04-28 13:52 |
|---|---|
| Airport | Indira Gandhi International Airport (VIDP) |
Arrival
| Time | N/A |
|---|---|
| Airport | Almaty International Airport (UAAA) |
| Time | Latitude | Longitude | Altitude | Speed | Heading |
|---|---|---|---|---|---|
| 2026-04-28 13:19 | 28.56182 | 77.08218 | 736 ft | 0 kts | 242° |
| 2026-04-28 13:44 | 28.56190 | 77.08234 | 735 ft | 4 kts | 246° |
| 2026-04-28 13:44 | 28.56199 | 77.08263 | 735 ft | 4 kts | 256° |
| 2026-04-28 13:44 | 28.56203 | 77.08293 | 736 ft | 4 kts | 275° |
| 2026-04-28 13:44 | 28.56195 | 77.08319 | 735 ft | 4 kts | 317° |
| 2026-04-28 13:45 | 28.56190 | 77.08324 | 733 ft | 0 kts | 330° |
| 2026-04-28 13:47 | 28.56202 | 77.08316 | 735 ft | 4 kts | 330° |
| 2026-04-28 13:47 | 28.56238 | 77.08292 | 736 ft | 8 kts | 330° |
| 2026-04-28 13:47 | 28.56290 | 77.08258 | 735 ft | 5 kts | 326° |
| 2026-04-28 13:48 | 28.56317 | 77.08220 | 735 ft | 8 kts | 295° |
| 2026-04-28 13:48 | 28.56325 | 77.08179 | 735 ft | 6 kts | 279° |
| 2026-04-28 13:48 | 28.56339 | 77.08124 | 735 ft | 9 kts | 287° |
| 2026-04-28 13:48 | 28.56358 | 77.08047 | 735 ft | 6 kts | 288° |
| 2026-04-28 13:49 | 28.56389 | 77.07999 | 735 ft | 9 kts | 328° |
| 2026-04-28 13:49 | 28.56459 | 77.08022 | 735 ft | 13 kts | 47° |
| 2026-04-28 13:49 | 28.56498 | 77.08094 | 735 ft | 9 kts | 60° |
| 2026-04-28 13:49 | 28.56532 | 77.08166 | 735 ft | 12 kts | 62° |
| 2026-04-28 13:50 | 28.56576 | 77.08260 | 735 ft | 11 kts | 61° |
| 2026-04-28 13:50 | 28.56601 | 77.08312 | 735 ft | 9 kts | 61° |
| 2026-04-28 13:50 | 28.56636 | 77.08384 | 735 ft | 12 kts | 61° |
| 2026-04-28 13:50 | 28.56680 | 77.08476 | 734 ft | 10 kts | 61° |
| 2026-04-28 13:51 | 28.56695 | 77.08506 | 734 ft | 1 kts | 61° |
| 2026-04-28 13:51 | 28.56705 | 77.08528 | 734 ft | 5 kts | 61° |
| 2026-04-28 13:51 | 28.56705 | 77.08580 | 735 ft | 7 kts | 103° |
| 2026-04-28 13:51 | 28.56703 | 77.08592 | 735 ft | 3 kts | 103° |
| 2026-04-28 13:52 | 28.56640 | 77.08868 | 741 ft | 86 kts | 105° |
| 2026-04-28 13:52 | 28.56407 | 77.09856 | 755 ft | 167 kts | 105° |
| 2026-04-28 13:52 | 28.56086 | 77.11223 | 1460 ft | 183 kts | 105° |
| 2026-04-28 13:52 | 28.55744 | 77.12666 | 2473 ft | 194 kts | 107° |
| 2026-04-28 13:53 | 28.55352 | 77.14179 | 3465 ft | 207 kts | 107° |
| 2026-04-28 13:53 | 28.54983 | 77.15817 | 4465 ft | 224 kts | 104° |
| 2026-04-28 13:53 | 28.54571 | 77.17663 | 5312 ft | 252 kts | 105° |
| 2026-04-28 13:53 | 28.54108 | 77.19671 | 6239 ft | 270 kts | 105° |
| 2026-04-28 13:54 | 28.53630 | 77.21775 | 7415 ft | 277 kts | 105° |
| 2026-04-28 13:54 | 28.53139 | 77.23922 | 8679 ft | 282 kts | 105° |
| 2026-04-28 13:54 | 28.52646 | 77.26072 | 9909 ft | 287 kts | 105° |
| 2026-04-28 13:54 | 28.52104 | 77.28277 | 11124 ft | 293 kts | 111° |
| 2026-04-28 13:55 | 28.50972 | 77.30195 | 12265 ft | 297 kts | 137° |
| 2026-04-28 13:55 | 28.49201 | 77.31400 | 13380 ft | 301 kts | 162° |
| 2026-04-28 13:55 | 28.47116 | 77.31642 | 14465 ft | 305 kts | 186° |
| 2026-04-28 13:55 | 28.45012 | 77.31207 | 15547 ft | 311 kts | 192° |
| 2026-04-28 13:56 | 28.42873 | 77.30673 | 16606 ft | 316 kts | 192° |
| 2026-04-28 13:56 | 28.40702 | 77.30148 | 17634 ft | 322 kts | 192° |
| 2026-04-28 13:56 | 28.38487 | 77.29631 | 18636 ft | 327 kts | 192° |
| 2026-04-28 13:56 | 28.36302 | 77.28857 | 19582 ft | 332 kts | 207° |
| 2026-04-28 13:57 | 28.34493 | 77.27272 | 20468 ft | 338 kts | 229° |
| 2026-04-28 13:57 | 28.33228 | 77.24908 | 20932 ft | 358 kts | 249° |
| 2026-04-28 13:57 | 28.32699 | 77.22109 | 21257 ft | 379 kts | 263° |
| 2026-04-28 13:57 | 28.32457 | 77.19047 | 21563 ft | 399 kts | 264° |
| 2026-04-28 13:58 | 28.32172 | 77.15835 | 21839 ft | 418 kts | 263° |
| 2026-04-28 13:58 | 28.31795 | 77.12505 | 22287 ft | 430 kts | 262° |
| 2026-04-28 13:58 | 28.31366 | 77.09124 | 22963 ft | 435 kts | 261° |
| 2026-04-28 13:58 | 28.31083 | 77.05682 | 23658 ft | 440 kts | 270° |
| 2026-04-28 13:59 | 28.31496 | 77.02229 | 24323 ft | 445 kts | 284° |
| 2026-04-28 13:59 | 28.32529 | 76.98903 | 24977 ft | 449 kts | 291° |
| 2026-04-28 13:59 | 28.33717 | 76.95605 | 25597 ft | 453 kts | 292° |
| 2026-04-28 13:59 | 28.34898 | 76.92320 | 26185 ft | 457 kts | 291° |
| 2026-04-28 14:00 | 28.36091 | 76.88959 | 26757 ft | 461 kts | 291° |
| 2026-04-28 14:00 | 28.37290 | 76.85552 | 27294 ft | 465 kts | 291° |
| 2026-04-28 14:00 | 28.38516 | 76.82138 | 27881 ft | 467 kts | 292° |
| 2026-04-28 14:00 | 28.39779 | 76.78748 | 28559 ft | 466 kts | 292° |
| 2026-04-28 14:01 | 28.41040 | 76.75363 | 29240 ft | 464 kts | 292° |
| 2026-04-28 14:01 | 28.42298 | 76.71992 | 29910 ft | 463 kts | 292° |
| 2026-04-28 14:01 | 28.43552 | 76.68623 | 30559 ft | 462 kts | 292° |
| 2026-04-28 14:01 | 28.44804 | 76.65269 | 31193 ft | 460 kts | 292° |
| 2026-04-28 14:02 | 28.46050 | 76.61922 | 31812 ft | 459 kts | 292° |
| 2026-04-28 14:02 | 28.47278 | 76.58626 | 32401 ft | 458 kts | 292° |
| 2026-04-28 14:02 | 28.48532 | 76.55253 | 32992 ft | 457 kts | 292° |
| 2026-04-28 14:02 | 28.49759 | 76.51928 | 33549 ft | 456 kts | 292° |
| 2026-04-28 14:03 | 28.50987 | 76.48602 | 33919 ft | 457 kts | 292° |
| 2026-04-28 14:03 | 28.52224 | 76.45329 | 34016 ft | 456 kts | 294° |
| 2026-04-28 14:03 | 28.54854 | 76.38771 | 34020 ft | 455 kts | 294° |
| 2026-04-28 14:04 | 28.57477 | 76.32220 | 34002 ft | 455 kts | 294° |
| 2026-04-28 14:04 | 28.59071 | 76.28234 | 34001 ft | 455 kts | 294° |
| 2026-04-28 14:05 | 28.60997 | 76.23426 | 34002 ft | 455 kts | 294° |
| 2026-04-28 14:05 | 28.63626 | 76.16860 | 34002 ft | 455 kts | 294° |
| 2026-04-28 14:06 | 28.66234 | 76.10293 | 34002 ft | 455 kts | 294° |
| 2026-04-28 14:06 | 28.68844 | 76.03734 | 34003 ft | 455 kts | 294° |
| 2026-04-28 14:07 | 28.71455 | 75.97165 | 34003 ft | 455 kts | 294° |
| 2026-04-28 14:07 | 28.74193 | 75.90661 | 33996 ft | 455 kts | 302° |
| 2026-04-28 14:08 | 28.76143 | 75.87823 | 33996 ft | 456 kts | 314° |
| 2026-04-28 14:08 | 28.78583 | 75.85522 | 34005 ft | 456 kts | 326° |
| 2026-04-28 14:08 | 28.83986 | 75.81715 | 34008 ft | 457 kts | 328° |
| 2026-04-28 14:09 | 28.89394 | 75.77915 | 34004 ft | 457 kts | 327° |
| 2026-04-28 14:09 | 28.94745 | 75.74055 | 34002 ft | 457 kts | 327° |
| 2026-04-28 14:10 | 29.00125 | 75.70206 | 34001 ft | 457 kts | 327° |
| 2026-04-28 14:10 | 29.05516 | 75.66342 | 34001 ft | 457 kts | 327° |
| 2026-04-28 14:11 | 29.10887 | 75.62470 | 34000 ft | 457 kts | 327° |
| 2026-04-28 14:11 | 29.16264 | 75.58595 | 34002 ft | 457 kts | 327° |
| 2026-04-28 14:12 | 29.21644 | 75.54715 | 34002 ft | 457 kts | 327° |
| 2026-04-28 14:12 | 29.26866 | 75.50678 | 33998 ft | 456 kts | 318° |
| 2026-04-28 14:13 | 29.28987 | 75.48044 | 33118 ft | 444 kts | 304° |
| 2026-04-28 14:13 | 29.30688 | 75.45114 | 33435 ft | 441 kts | 302° |
| 2026-04-28 14:13 | 29.32741 | 75.42501 | 33581 ft | 444 kts | 316° |
| 2026-04-28 14:13 | 29.35294 | 75.40480 | 33634 ft | 449 kts | 328° |
| 2026-04-28 14:14 | 29.38194 | 75.39123 | 33646 ft | 454 kts | 341° |
| 2026-04-28 14:14 | 29.41313 | 75.38440 | 33646 ft | 458 kts | 348° |
| 2026-04-28 14:14 | 29.47627 | 75.37502 | 33645 ft | 457 kts | 349° |
| 2026-04-28 14:15 | 29.53936 | 75.36514 | 33641 ft | 457 kts | 348° |
| 2026-04-28 14:15 | 29.60243 | 75.35496 | 33643 ft | 458 kts | 348° |
| 2026-04-28 14:16 | 29.66561 | 75.34480 | 33650 ft | 459 kts | 348° |
| 2026-04-28 14:16 | 29.72896 | 75.33458 | 33646 ft | 460 kts | 348° |
| 2026-04-28 14:17 | 29.79237 | 75.32431 | 33646 ft | 460 kts | 348° |
| 2026-04-28 14:17 | 29.85549 | 75.31405 | 33641 ft | 461 kts | 348° |
| 2026-04-28 14:18 | 29.91915 | 75.30374 | 33644 ft | 462 kts | 348° |
| 2026-04-28 14:18 | 29.98281 | 75.29338 | 33638 ft | 462 kts | 348° |
| 2026-04-28 14:19 | 30.04662 | 75.28304 | 33642 ft | 463 kts | 348° |
| 2026-04-28 14:19 | 30.11049 | 75.27265 | 33644 ft | 463 kts | 348° |
| 2026-04-28 14:20 | 30.17434 | 75.26219 | 33648 ft | 464 kts | 347° |
| 2026-04-28 14:20 | 30.23797 | 75.25179 | 33642 ft | 465 kts | 347° |
| 2026-04-28 14:21 | 30.30204 | 75.24131 | 33645 ft | 465 kts | 347° |
| 2026-04-28 14:21 | 30.36629 | 75.23079 | 33645 ft | 466 kts | 347° |
| 2026-04-28 14:22 | 30.43058 | 75.22027 | 33643 ft | 467 kts | 347° |
| 2026-04-28 14:22 | 30.49506 | 75.20967 | 33645 ft | 467 kts | 347° |
| 2026-04-28 14:23 | 30.55945 | 75.19907 | 33649 ft | 467 kts | 347° |
| 2026-04-28 14:23 | 30.62399 | 75.18844 | 33642 ft | 468 kts | 347° |
| 2026-04-28 14:24 | 30.68849 | 75.17783 | 33647 ft | 468 kts | 347° |
| 2026-04-28 14:24 | 30.75262 | 75.16721 | 33644 ft | 468 kts | 346° |
| 2026-04-28 14:25 | 30.81316 | 75.14396 | 33637 ft | 452 kts | 324° |
| 2026-04-28 14:25 | 30.83818 | 75.12226 | 33648 ft | 445 kts | 313° |
| 2026-04-28 14:25 | 30.86069 | 75.09769 | 33650 ft | 444 kts | 311° |
| 2026-04-28 14:26 | 30.89780 | 75.05654 | 33644 ft | 444 kts | 311° |
| 2026-04-28 14:26 | 30.94294 | 75.00707 | 33644 ft | 444 kts | 312° |
| 2026-04-28 14:27 | 30.98801 | 74.95826 | 33645 ft | 445 kts | 312° |
| 2026-04-28 14:27 | 31.03327 | 74.90882 | 33641 ft | 445 kts | 312° |
| 2026-04-28 14:28 | 31.07843 | 74.85947 | 33644 ft | 445 kts | 312° |
| 2026-04-28 14:28 | 31.12348 | 74.80999 | 33640 ft | 445 kts | 312° |
| 2026-04-28 14:29 | 31.16862 | 74.76058 | 33640 ft | 444 kts | 312° |
| 2026-04-28 14:29 | 31.21345 | 74.71154 | 33641 ft | 444 kts | 313° |
| 2026-04-28 14:30 | 31.25848 | 74.66218 | 33647 ft | 443 kts | 313° |
| 2026-04-28 14:30 | 31.30333 | 74.61275 | 33648 ft | 442 kts | 313° |
| 2026-04-28 14:31 | 31.34842 | 74.56378 | 33644 ft | 443 kts | 315° |
| 2026-04-28 14:31 | 31.39629 | 74.51791 | 33644 ft | 444 kts | 316° |
| 2026-04-28 14:32 | 31.44412 | 74.47211 | 33638 ft | 444 kts | 316° |
| 2026-04-28 14:32 | 31.49189 | 74.42620 | 33638 ft | 444 kts | 316° |
| 2026-04-28 14:33 | 31.53775 | 74.37810 | 33636 ft | 441 kts | 311° |
| 2026-04-28 14:33 | 31.58054 | 74.32708 | 33638 ft | 441 kts | 310° |
| 2026-04-28 14:34 | 31.64482 | 74.25003 | 33647 ft | 439 kts | 311° |
| 2026-04-28 14:35 | 31.68747 | 74.19898 | 33646 ft | 437 kts | 311° |
| 2026-04-28 14:35 | 31.72989 | 74.14802 | 33646 ft | 436 kts | 311° |
| 2026-04-28 14:36 | 31.77217 | 74.09721 | 33645 ft | 434 kts | 311° |
| 2026-04-28 14:36 | 31.81445 | 74.04656 | 33655 ft | 434 kts | 313° |
| 2026-04-28 14:37 | 31.85804 | 73.99751 | 33648 ft | 434 kts | 314° |
| 2026-04-28 14:37 | 31.90182 | 73.94868 | 33655 ft | 433 kts | 314° |
| 2026-04-28 14:38 | 31.94546 | 73.89976 | 33652 ft | 433 kts | 314° |
| 2026-04-28 14:38 | 31.98886 | 73.85111 | 33653 ft | 433 kts | 314° |
| 2026-04-28 14:39 | 32.03239 | 73.80215 | 33662 ft | 433 kts | 314° |
| 2026-04-28 14:39 | 32.07597 | 73.75305 | 33663 ft | 433 kts | 314° |
| 2026-04-28 14:40 | 32.11954 | 73.70391 | 33667 ft | 433 kts | 314° |
| 2026-04-28 14:40 | 32.16307 | 73.65489 | 33672 ft | 433 kts | 314° |
| 2026-04-28 14:41 | 32.20660 | 73.60561 | 33681 ft | 434 kts | 314° |
| 2026-04-28 14:41 | 32.25029 | 73.55627 | 33691 ft | 434 kts | 314° |
| 2026-04-28 14:42 | 32.29393 | 73.50680 | 33699 ft | 435 kts | 314° |
| 2026-04-28 14:42 | 32.33735 | 73.45760 | 33707 ft | 436 kts | 314° |
| 2026-04-28 14:43 | 32.38115 | 73.40786 | 33696 ft | 437 kts | 314° |
| 2026-04-28 14:43 | 32.42508 | 73.35770 | 33707 ft | 439 kts | 314° |
| 2026-04-28 14:44 | 32.46917 | 73.30748 | 33730 ft | 440 kts | 314° |
| 2026-04-28 14:44 | 32.51313 | 73.25740 | 33722 ft | 442 kts | 314° |
| 2026-04-28 14:45 | 32.55749 | 73.20671 | 33732 ft | 443 kts | 314° |
| 2026-04-28 14:45 | 32.60197 | 73.15578 | 33744 ft | 445 kts | 314° |
| 2026-04-28 14:46 | 32.64644 | 73.10470 | 33749 ft | 445 kts | 314° |
| 2026-04-28 14:46 | 32.69027 | 73.05288 | 33758 ft | 444 kts | 313° |
| 2026-04-28 14:47 | 32.73405 | 73.00091 | 33765 ft | 445 kts | 313° |
| 2026-04-28 14:47 | 32.77769 | 72.94911 | 33769 ft | 447 kts | 313° |
| 2026-04-28 14:48 | 32.82191 | 72.89670 | 33768 ft | 450 kts | 313° |
| 2026-04-28 14:48 | 32.86642 | 72.84379 | 33772 ft | 453 kts | 312° |
| 2026-04-28 14:49 | 32.91109 | 72.79064 | 33766 ft | 456 kts | 312° |
| 2026-04-28 14:49 | 32.95611 | 72.73703 | 33767 ft | 458 kts | 313° |
| 2026-04-28 14:50 | 33.00121 | 72.68316 | 33765 ft | 459 kts | 313° |
| 2026-04-28 14:50 | 33.04626 | 72.62930 | 33755 ft | 458 kts | 312° |
| 2026-04-28 14:51 | 33.09129 | 72.57550 | 33755 ft | 458 kts | 312° |
| 2026-04-28 14:51 | 33.13643 | 72.52163 | 33750 ft | 459 kts | 313° |
| 2026-04-28 14:52 | 33.18143 | 72.46756 | 33747 ft | 460 kts | 312° |
| 2026-04-28 14:52 | 33.22638 | 72.41308 | 33746 ft | 461 kts | 313° |
| 2026-04-28 14:53 | 33.27154 | 72.35916 | 33747 ft | 463 kts | 313° |
| 2026-04-28 14:53 | 33.31710 | 72.30470 | 33752 ft | 464 kts | 313° |
| 2026-04-28 14:54 | 33.36264 | 72.25007 | 33748 ft | 463 kts | 313° |
| 2026-04-28 14:54 | 33.40804 | 72.19527 | 33757 ft | 463 kts | 312° |
| 2026-04-28 14:55 | 33.45336 | 72.14040 | 33753 ft | 463 kts | 313° |
| 2026-04-28 14:55 | 33.49876 | 72.08558 | 33758 ft | 463 kts | 312° |
| 2026-04-28 14:56 | 33.54178 | 72.03342 | 33755 ft | 463 kts | 312° |
| 2026-04-28 14:56 | 33.58741 | 71.97892 | 33752 ft | 463 kts | 313° |
| 2026-04-28 14:57 | 33.63349 | 71.92472 | 33762 ft | 463 kts | 313° |
| 2026-04-28 14:57 | 33.67929 | 71.87041 | 33768 ft | 463 kts | 313° |
| 2026-04-28 14:58 | 33.72507 | 71.81610 | 33768 ft | 463 kts | 313° |
| 2026-04-28 14:58 | 33.77069 | 71.76129 | 33773 ft | 463 kts | 312° |
| 2026-04-28 14:59 | 33.81640 | 71.70657 | 33770 ft | 464 kts | 313° |
| 2026-04-28 14:59 | 33.86226 | 71.65237 | 33771 ft | 465 kts | 313° |
| 2026-04-28 15:00 | 33.90880 | 71.59812 | 33773 ft | 466 kts | 313° |
| 2026-04-28 15:00 | 33.95757 | 71.54653 | 33768 ft | 471 kts | 325° |
| 2026-04-28 15:00 | 33.98702 | 71.52904 | 33775 ft | 474 kts | 338° |
| 2026-04-28 15:01 | 34.01922 | 71.51993 | 33778 ft | 477 kts | 352° |
| 2026-04-28 15:01 | 34.08551 | 71.52070 | 33779 ft | 477 kts | 1° |
| 2026-04-28 15:02 | 34.15145 | 71.52397 | 33777 ft | 476 kts | 1° |
| 2026-04-28 15:02 | 34.21787 | 71.52674 | 33774 ft | 475 kts | 1° |
| 2026-04-28 15:03 | 34.28348 | 71.52944 | 33778 ft | 474 kts | 1° |
| 2026-04-28 15:03 | 34.34970 | 71.53210 | 33785 ft | 477 kts | 1° |
| 2026-04-28 15:04 | 34.41614 | 71.53483 | 33793 ft | 477 kts | 1° |
| 2026-04-28 15:04 | 34.48232 | 71.53755 | 33792 ft | 475 kts | 1° |
| 2026-04-28 15:05 | 34.54848 | 71.54028 | 33805 ft | 475 kts | 1° |
| 2026-04-28 15:05 | 34.61457 | 71.54304 | 33814 ft | 475 kts | 1° |
| 2026-04-28 15:06 | 34.68024 | 71.54575 | 33822 ft | 474 kts | 1° |
| 2026-04-28 15:06 | 34.74613 | 71.54844 | 33835 ft | 474 kts | 0° |
| 2026-04-28 15:07 | 34.81212 | 71.55117 | 33845 ft | 473 kts | 0° |
| 2026-04-28 15:07 | 34.87785 | 71.55390 | 33854 ft | 473 kts | 0° |
| 2026-04-28 15:08 | 34.94360 | 71.55663 | 33869 ft | 472 kts | 0° |
| 2026-04-28 15:08 | 35.00902 | 71.55934 | 33886 ft | 471 kts | 0° |
| 2026-04-28 15:09 | 35.07442 | 71.56209 | 33889 ft | 470 kts | 0° |
| 2026-04-28 15:09 | 35.13968 | 71.56480 | 33908 ft | 469 kts | 0° |
| 2026-04-28 15:10 | 35.20487 | 71.56754 | 33929 ft | 468 kts | 0° |
| 2026-04-28 15:10 | 35.27007 | 71.57029 | 33946 ft | 468 kts | 0° |
| 2026-04-28 15:11 | 35.33504 | 71.57303 | 33956 ft | 467 kts | 1° |
| 2026-04-28 15:11 | 35.39998 | 71.57576 | 33972 ft | 467 kts | 1° |
| 2026-04-28 15:12 | 35.46441 | 71.57846 | 33980 ft | 467 kts | 1° |
| 2026-04-28 15:12 | 35.52945 | 71.58118 | 33994 ft | 467 kts | 1° |
| 2026-04-28 15:13 | 35.59448 | 71.58394 | 33997 ft | 468 kts | 1° |
| 2026-04-28 15:13 | 35.65952 | 71.58671 | 34010 ft | 468 kts | 1° |
| 2026-04-28 15:14 | 35.72469 | 71.58945 | 34018 ft | 468 kts | 1° |
| 2026-04-28 15:14 | 35.78983 | 71.59225 | 34026 ft | 468 kts | 1° |
| 2026-04-28 15:15 | 35.85506 | 71.59502 | 34042 ft | 469 kts | 0° |
| 2026-04-28 15:15 | 35.92035 | 71.59779 | 34039 ft | 469 kts | 1° |
| 2026-04-28 15:16 | 35.98524 | 71.60058 | 34055 ft | 469 kts | 1° |
| 2026-04-28 15:16 | 36.05053 | 71.60334 | 34069 ft | 469 kts | 1° |
| 2026-04-28 15:17 | 36.11579 | 71.60615 | 34073 ft | 469 kts | 1° |
| 2026-04-28 15:17 | 36.18105 | 71.60889 | 34089 ft | 469 kts | 1° |
| 2026-04-28 15:18 | 36.23536 | 71.61122 | 34098 ft | 469 kts | 1° |
| 2026-04-28 15:18 | 36.30061 | 71.61408 | 34099 ft | 469 kts | 1° |
| 2026-04-28 15:19 | 36.36583 | 71.61694 | 34110 ft | 469 kts | 1° |
| 2026-04-28 15:19 | 36.43100 | 71.61973 | 34110 ft | 470 kts | 1° |
| 2026-04-28 15:20 | 36.50707 | 71.62298 | 34123 ft | 470 kts | 1° |
| 2026-04-28 15:20 | 36.56183 | 71.62537 | 34130 ft | 470 kts | 1° |
| 2026-04-28 15:21 | 36.62680 | 71.62823 | 34122 ft | 470 kts | 1° |
| 2026-04-28 15:21 | 36.69224 | 71.63016 | 34129 ft | 471 kts | 359° |
| 2026-04-28 15:22 | 36.75795 | 71.63025 | 34130 ft | 472 kts | 359° |
| 2026-04-28 15:22 | 36.82358 | 71.63039 | 34120 ft | 472 kts | 359° |
| 2026-04-28 15:23 | 36.88944 | 71.63053 | 34132 ft | 473 kts | 359° |
| 2026-04-28 15:23 | 36.95490 | 71.63057 | 34136 ft | 474 kts | 359° |
| 2026-04-28 15:24 | 37.02085 | 71.63060 | 34132 ft | 475 kts | 359° |
| 2026-04-28 15:24 | 37.08689 | 71.63083 | 34141 ft | 475 kts | 359° |
| 2026-04-28 15:25 | 37.15314 | 71.63096 | 34145 ft | 476 kts | 359° |
| 2026-04-28 15:25 | 37.21942 | 71.63109 | 34135 ft | 477 kts | 359° |
| 2026-04-28 15:26 | 37.28578 | 71.63115 | 34124 ft | 477 kts | 359° |
| 2026-04-28 15:26 | 37.34943 | 71.63132 | 34136 ft | 477 kts | 359° |
| 2026-04-28 15:27 | 37.41581 | 71.63140 | 34135 ft | 477 kts | 359° |
| 2026-04-28 15:27 | 37.48189 | 71.63143 | 34146 ft | 477 kts | 359° |
| 2026-04-28 15:28 | 37.54831 | 71.63159 | 34134 ft | 477 kts | 359° |
| 2026-04-28 15:28 | 37.61471 | 71.63170 | 34133 ft | 477 kts | 359° |
| 2026-04-28 15:29 | 37.68124 | 71.63192 | 34137 ft | 477 kts | 358° |
| 2026-04-28 15:29 | 37.74772 | 71.63197 | 34137 ft | 477 kts | 358° |
| 2026-04-28 15:30 | 37.81411 | 71.63212 | 34142 ft | 477 kts | 359° |
| 2026-04-28 15:30 | 37.88046 | 71.63227 | 34126 ft | 476 kts | 358° |
| 2026-04-28 15:31 | 37.94692 | 71.63223 | 34136 ft | 477 kts | 358° |
| 2026-04-28 15:31 | 38.01292 | 71.63220 | 34134 ft | 477 kts | 358° |
| 2026-04-28 15:32 | 38.07935 | 71.63232 | 34138 ft | 477 kts | 358° |
| 2026-04-28 15:32 | 38.14568 | 71.63251 | 34123 ft | 477 kts | 358° |
| 2026-04-28 15:33 | 38.21200 | 71.63265 | 34133 ft | 477 kts | 358° |
| 2026-04-28 15:33 | 38.27838 | 71.63275 | 34130 ft | 476 kts | 358° |
| 2026-04-28 15:34 | 38.34476 | 71.63288 | 34119 ft | 477 kts | 358° |
| 2026-04-28 15:34 | 38.41116 | 71.63308 | 34134 ft | 477 kts | 358° |
| 2026-04-28 15:35 | 38.47747 | 71.63311 | 34122 ft | 477 kts | 357° |
| 2026-04-28 15:35 | 38.57657 | 71.63248 | 34131 ft | 475 kts | 353° |
| 2026-04-28 15:36 | 38.64088 | 71.61596 | 34140 ft | 471 kts | 343° |
| 2026-04-28 15:36 | 38.70461 | 71.59638 | 34127 ft | 470 kts | 343° |
| 2026-04-28 15:37 | 38.76830 | 71.57693 | 34143 ft | 471 kts | 343° |
| 2026-04-28 15:37 | 38.83188 | 71.55756 | 34134 ft | 470 kts | 343° |
| 2026-04-28 15:38 | 38.89538 | 71.53802 | 34120 ft | 469 kts | 342° |
| 2026-04-28 15:38 | 38.95882 | 71.51847 | 34113 ft | 468 kts | 342° |
| 2026-04-28 15:39 | 39.02212 | 71.49898 | 34093 ft | 467 kts | 342° |
| 2026-04-28 15:39 | 39.08546 | 71.47956 | 34088 ft | 467 kts | 342° |
| 2026-04-28 15:40 | 39.14858 | 71.46007 | 34086 ft | 467 kts | 342° |
| 2026-04-28 15:40 | 39.21137 | 71.44061 | 34079 ft | 467 kts | 342° |
| 2026-04-28 15:41 | 39.27458 | 71.42093 | 34076 ft | 467 kts | 342° |
| 2026-04-28 15:41 | 39.33780 | 71.40139 | 34079 ft | 467 kts | 342° |
| 2026-04-28 15:42 | 39.40103 | 71.38175 | 34359 ft | 466 kts | 346° |
| 2026-04-28 15:42 | 39.43225 | 71.37200 | 34235 ft | 458 kts | 346° |
| 2026-04-28 15:42 | 39.46322 | 71.36237 | 34096 ft | 456 kts | 346° |
| 2026-04-28 15:43 | 39.52486 | 71.34311 | 34008 ft | 456 kts | 346° |
| 2026-04-28 15:43 | 39.58675 | 71.32380 | 34000 ft | 456 kts | 346° |
| 2026-04-28 15:44 | 39.64846 | 71.30454 | 34003 ft | 456 kts | 346° |
| 2026-04-28 15:44 | 39.70981 | 71.28532 | 34000 ft | 456 kts | 346° |
| 2026-04-28 15:45 | 39.77155 | 71.26574 | 34000 ft | 456 kts | 346° |
| 2026-04-28 15:45 | 39.83327 | 71.24617 | 33999 ft | 456 kts | 346° |
| 2026-04-28 15:46 | 39.89497 | 71.22667 | 34003 ft | 456 kts | 346° |
| 2026-04-28 15:46 | 39.95669 | 71.20718 | 34002 ft | 456 kts | 346° |
| 2026-04-28 15:47 | 40.01838 | 71.18751 | 34002 ft | 456 kts | 346° |
| 2026-04-28 15:47 | 40.08032 | 71.16880 | 33998 ft | 457 kts | 351° |
| 2026-04-28 15:48 | 40.11198 | 71.16671 | 33994 ft | 457 kts | 3° |
| 2026-04-28 15:48 | 40.14332 | 71.17363 | 33998 ft | 457 kts | 16° |
| 2026-04-28 15:48 | 40.17266 | 71.18942 | 34002 ft | 457 kts | 28° |